Nimbus Weather Services

Informe meteorológico para Carrasco, Uruguay. El informe se hizo hace 29 minutos, a las 16:00 UTC. El viento soplaba a una velocidad de 2.1 m/s (4.6 millas por hora) del sur-suroeste (210°). La temperatura era 14 °C (57 °F), con un punto de rocío de 7 °C (45 °F). La presión atmosférica era 1021 hPa (30.15 inHg). Había una humedad relativa del 62.7%. Cielo: algunas nubes a una altitud de 914 metros (3000 pies). En aquel momento la visibilidad global era mayor de 10 kilómetros (6.2 millas).

La clave METAR es: SUMU 191600Z 21004KT 9999 FEW030 14/07 Q1021 NOSIG

Consulta realizada el Jueves 19 de Mayo de 2022 13:28. Tiempo usado para generar esta pagina:10,933 ms.